sensor_id;sensor_type;location;lat;lon;timestamp;P1;durP1;ratioP1;P2;durP2;ratioP2
23140;SDS011;11739;54.750;9.124;2023-09-08T00:00:25;6.38;;;5.88;;
23140;SDS011;11739;54.750;9.124;2023-09-08T00:02:50;6.32;;;5.82;;
23140;SDS011;11739;54.750;9.124;2023-09-08T00:05:16;6.47;;;5.90;;
23140;SDS011;11739;54.750;9.124;2023-09-08T00:07:41;6.32;;;5.72;;
23140;SDS011;11739;54.750;9.124;2023-09-08T00:10:06;7.13;;;6.43;;
23140;SDS011;11739;54.750;9.124;2023-09-08T00:12:32;6.45;;;5.88;;
23140;SDS011;11739;54.750;9.124;2023-09-08T00:14:57;6.25;;;5.75;;
23140;SDS011;11739;54.750;9.124;2023-09-08T00:17:22;6.35;;;5.75;;
23140;SDS011;11739;54.750;9.124;2023-09-08T00:19:48;6.88;;;6.18;;
23140;SDS011;11739;54.750;9.124;2023-09-08T00:22:13;6.05;;;5.55;;
23140;SDS011;11739;54.750;9.124;2023-09-08T00:24:38;6.88;;;6.22;;
23140;SDS011;11739;54.750;9.124;2023-09-08T00:27:04;6.53;;;5.88;;
23140;SDS011;11739;54.750;9.124;2023-09-08T00:29:29;6.97;;;6.38;;
23140;SDS011;11739;54.750;9.124;2023-09-08T00:31:54;6.63;;;6.03;;
23140;SDS011;11739;54.750;9.124;2023-09-08T00:34:20;7.07;;;6.38;;
23140;SDS011;11739;54.750;9.124;2023-09-08T00:36:45;7.10;;;6.50;;
23140;SDS011;11739;54.750;9.124;2023-09-08T00:39:10;6.93;;;6.22;;
23140;SDS011;11739;54.750;9.124;2023-09-08T00:41:36;6.63;;;5.95;;
23140;SDS011;11739;54.750;9.124;2023-09-08T00:44:01;7.75;;;6.43;;
23140;SDS011;11739;54.750;9.124;2023-09-08T00:46:26;7.68;;;6.82;;
23140;SDS011;11739;54.750;9.124;2023-09-08T00:48:51;6.93;;;6.28;;
23140;SDS011;11739;54.750;9.124;2023-09-08T00:51:17;6.85;;;6.22;;
23140;SDS011;11739;54.750;9.124;2023-09-08T00:53:42;7.72;;;6.35;;
23140;SDS011;11739;54.750;9.124;2023-09-08T00:56:08;7.05;;;6.13;;
23140;SDS011;11739;54.750;9.124;2023-09-08T00:58:34;7.60;;;6.90;;
23140;SDS011;11739;54.750;9.124;2023-09-08T01:00:59;6.68;;;6.07;;
23140;SDS011;11739;54.750;9.124;2023-09-08T01:03:25;6.93;;;6.28;;
23140;SDS011;11739;54.750;9.124;2023-09-08T01:05:50;6.70;;;6.10;;
23140;SDS011;11739;54.750;9.124;2023-09-08T01:08:16;6.80;;;5.97;;
23140;SDS011;11739;54.750;9.124;2023-09-08T01:10:41;7.35;;;6.50;;
23140;SDS011;11739;54.750;9.124;2023-09-08T01:13:07;7.10;;;6.40;;
23140;SDS011;11739;54.750;9.124;2023-09-08T01:15:32;6.93;;;6.35;;
23140;SDS011;11739;54.750;9.124;2023-09-08T01:17:58;7.28;;;6.55;;
23140;SDS011;11739;54.750;9.124;2023-09-08T01:20:35;7.63;;;6.93;;
23140;SDS011;11739;54.750;9.124;2023-09-08T01:25:52;7.53;;;6.73;;
23140;SDS011;11739;54.750;9.124;2023-09-08T01:28:20;7.10;;;6.40;;
23140;SDS011;11739;54.750;9.124;2023-09-08T01:30:45;7.57;;;6.80;;
23140;SDS011;11739;54.750;9.124;2023-09-08T01:33:11;7.80;;;6.30;;
23140;SDS011;11739;54.750;9.124;2023-09-08T01:35:37;7.32;;;6.60;;
23140;SDS011;11739;54.750;9.124;2023-09-08T01:38:02;7.38;;;6.50;;
23140;SDS011;11739;54.750;9.124;2023-09-08T01:40:27;6.93;;;6.25;;
23140;SDS011;11739;54.750;9.124;2023-09-08T01:42:53;6.78;;;6.28;;
23140;SDS011;11739;54.750;9.124;2023-09-08T01:45:18;6.65;;;6.05;;
23140;SDS011;11739;54.750;9.124;2023-09-08T01:47:43;7.00;;;6.30;;
23140;SDS011;11739;54.750;9.124;2023-09-08T01:50:09;7.65;;;6.28;;
23140;SDS011;11739;54.750;9.124;2023-09-08T01:52:34;6.60;;;6.00;;
23140;SDS011;11739;54.750;9.124;2023-09-08T01:55:00;6.55;;;5.95;;
23140;SDS011;11739;54.750;9.124;2023-09-08T01:57:25;6.28;;;5.70;;
23140;SDS011;11739;54.750;9.124;2023-09-08T01:59:50;6.32;;;5.78;;
23140;SDS011;11739;54.750;9.124;2023-09-08T02:02:15;6.78;;;6.13;;
23140;SDS011;11739;54.750;9.124;2023-09-08T02:04:41;6.80;;;6.20;;
23140;SDS011;11739;54.750;9.124;2023-09-08T02:07:06;5.90;;;5.30;;
23140;SDS011;11739;54.750;9.124;2023-09-08T02:09:32;6.85;;;5.65;;
23140;SDS011;11739;54.750;9.124;2023-09-08T02:11:57;9.63;;;6.00;;
23140;SDS011;11739;54.750;9.124;2023-09-08T02:14:24;8.13;;;5.80;;
23140;SDS011;11739;54.750;9.124;2023-09-08T02:16:49;6.18;;;5.57;;
23140;SDS011;11739;54.750;9.124;2023-09-08T02:19:14;6.10;;;5.60;;
23140;SDS011;11739;54.750;9.124;2023-09-08T02:21:40;6.07;;;5.47;;
23140;SDS011;11739;54.750;9.124;2023-09-08T02:24:05;6.03;;;5.43;;
23140;SDS011;11739;54.750;9.124;2023-09-08T02:26:30;5.90;;;5.32;;
23140;SDS011;11739;54.750;9.124;2023-09-08T02:28:56;6.03;;;5.57;;
23140;SDS011;11739;54.750;9.124;2023-09-08T02:31:21;6.15;;;5.63;;
23140;SDS011;11739;54.750;9.124;2023-09-08T02:33:46;6.18;;;5.68;;
23140;SDS011;11739;54.750;9.124;2023-09-08T02:36:12;6.30;;;5.80;;
23140;SDS011;11739;54.750;9.124;2023-09-08T02:38:37;6.30;;;5.68;;
23140;SDS011;11739;54.750;9.124;2023-09-08T02:41:02;6.30;;;5.72;;
23140;SDS011;11739;54.750;9.124;2023-09-08T02:43:28;5.95;;;5.45;;
23140;SDS011;11739;54.750;9.124;2023-09-08T02:45:53;5.70;;;5.15;;
23140;SDS011;11739;54.750;9.124;2023-09-08T02:48:18;5.65;;;5.15;;
23140;SDS011;11739;54.750;9.124;2023-09-08T02:50:43;5.60;;;5.20;;
23140;SDS011;11739;54.750;9.124;2023-09-08T02:53:09;6.40;;;5.45;;
23140;SDS011;11739;54.750;9.124;2023-09-08T02:55:34;5.43;;;4.97;;
23140;SDS011;11739;54.750;9.124;2023-09-08T02:57:59;5.60;;;5.20;;
23140;SDS011;11739;54.750;9.124;2023-09-08T03:00:25;5.97;;;5.45;;
23140;SDS011;11739;54.750;9.124;2023-09-08T03:02:50;6.05;;;5.45;;
23140;SDS011;11739;54.750;9.124;2023-09-08T03:05:15;5.90;;;5.40;;
23140;SDS011;11739;54.750;9.124;2023-09-08T03:07:41;5.45;;;4.97;;
23140;SDS011;11739;54.750;9.124;2023-09-08T03:10:06;5.28;;;4.88;;
23140;SDS011;11739;54.750;9.124;2023-09-08T03:12:32;6.15;;;5.50;;
23140;SDS011;11739;54.750;9.124;2023-09-08T03:14:57;5.97;;;5.47;;
23140;SDS011;11739;54.750;9.124;2023-09-08T03:17:22;5.50;;;4.78;;
23140;SDS011;11739;54.750;9.124;2023-09-08T03:19:47;6.07;;;5.57;;
23140;SDS011;11739;54.750;9.124;2023-09-08T03:22:13;5.32;;;4.80;;
23140;SDS011;11739;54.750;9.124;2023-09-08T03:24:38;5.82;;;5.28;;
23140;SDS011;11739;54.750;9.124;2023-09-08T03:27:03;5.38;;;4.90;;
23140;SDS011;11739;54.750;9.124;2023-09-08T03:29:29;6.20;;;5.60;;
23140;SDS011;11739;54.750;9.124;2023-09-08T03:31:54;5.10;;;4.70;;
23140;SDS011;11739;54.750;9.124;2023-09-08T03:34:19;5.85;;;5.35;;
23140;SDS011;11739;54.750;9.124;2023-09-08T03:36:45;5.78;;;5.13;;
23140;SDS011;11739;54.750;9.124;2023-09-08T03:39:10;5.82;;;5.32;;
23140;SDS011;11739;54.750;9.124;2023-09-08T03:41:35;6.72;;;5.32;;
23140;SDS011;11739;54.750;9.124;2023-09-08T03:44:00;5.70;;;5.20;;
23140;SDS011;11739;54.750;9.124;2023-09-08T03:46:26;5.50;;;5.00;;
23140;SDS011;11739;54.750;9.124;2023-09-08T03:48:51;5.10;;;4.70;;
23140;SDS011;11739;54.750;9.124;2023-09-08T03:51:16;6.47;;;5.03;;
23140;SDS011;11739;54.750;9.124;2023-09-08T03:53:42;5.05;;;4.65;;
23140;SDS011;11739;54.750;9.124;2023-09-08T03:56:07;5.43;;;5.00;;
23140;SDS011;11739;54.750;9.124;2023-09-08T03:58:32;4.95;;;4.55;;
23140;SDS011;11739;54.750;9.124;2023-09-08T04:00:58;5.70;;;5.18;;
23140;SDS011;11739;54.750;9.124;2023-09-08T04:03:23;5.28;;;4.88;;
23140;SDS011;11739;54.750;9.124;2023-09-08T04:05:48;5.32;;;4.82;;
23140;SDS011;11739;54.750;9.124;2023-09-08T04:08:13;5.95;;;5.35;;
23140;SDS011;11739;54.750;9.124;2023-09-08T04:10:39;5.38;;;4.63;;
23140;SDS011;11739;54.750;9.124;2023-09-08T04:13:04;5.03;;;4.63;;
23140;SDS011;11739;54.750;9.124;2023-09-08T04:15:29;6.13;;;5.20;;
23140;SDS011;11739;54.750;9.124;2023-09-08T04:17:55;5.72;;;5.15;;
23140;SDS011;11739;54.750;9.124;2023-09-08T04:20:20;5.43;;;4.95;;
23140;SDS011;11739;54.750;9.124;2023-09-08T04:22:45;5.20;;;4.78;;
23140;SDS011;11739;54.750;9.124;2023-09-08T04:25:11;6.07;;;5.57;;
23140;SDS011;11739;54.750;9.124;2023-09-08T04:27:36;5.82;;;5.22;;
23140;SDS011;11739;54.750;9.124;2023-09-08T04:30:01;5.25;;;4.85;;
23140;SDS011;11739;54.750;9.124;2023-09-08T04:32:26;5.45;;;4.95;;
23140;SDS011;11739;54.750;9.124;2023-09-08T04:34:52;5.18;;;4.78;;
23140;SDS011;11739;54.750;9.124;2023-09-08T04:37:17;6.63;;;4.93;;
23140;SDS011;11739;54.750;9.124;2023-09-08T04:39:42;5.18;;;4.80;;
23140;SDS011;11739;54.750;9.124;2023-09-08T04:42:08;5.35;;;4.95;;
23140;SDS011;11739;54.750;9.124;2023-09-08T04:44:33;4.90;;;4.47;;
23140;SDS011;11739;54.750;9.124;2023-09-08T04:46:58;5.55;;;5.05;;
23140;SDS011;11739;54.750;9.124;2023-09-08T04:49:24;5.50;;;5.00;;
23140;SDS011;11739;54.750;9.124;2023-09-08T04:51:49;4.95;;;4.55;;
23140;SDS011;11739;54.750;9.124;2023-09-08T04:54:14;5.00;;;4.60;;
23140;SDS011;11739;54.750;9.124;2023-09-08T04:56:40;5.78;;;5.32;;
23140;SDS011;11739;54.750;9.124;2023-09-08T04:59:05;5.38;;;4.88;;
23140;SDS011;11739;54.750;9.124;2023-09-08T05:01:30;5.97;;;5.32;;
23140;SDS011;11739;54.750;9.124;2023-09-08T05:03:55;5.65;;;5.15;;
23140;SDS011;11739;54.750;9.124;2023-09-08T05:06:21;5.43;;;4.93;;
23140;SDS011;11739;54.750;9.124;2023-09-08T05:08:46;5.18;;;4.78;;
23140;SDS011;11739;54.750;9.124;2023-09-08T05:11:11;5.50;;;4.43;;
23140;SDS011;11739;54.750;9.124;2023-09-08T05:13:37;5.35;;;4.85;;
23140;SDS011;11739;54.750;9.124;2023-09-08T05:16:02;4.68;;;4.38;;
23140;SDS011;11739;54.750;9.124;2023-09-08T05:18:27;5.22;;;4.72;;
23140;SDS011;11739;54.750;9.124;2023-09-08T05:20:53;4.35;;;3.95;;
23140;SDS011;11739;54.750;9.124;2023-09-08T05:23:18;5.07;;;4.65;;
23140;SDS011;11739;54.750;9.124;2023-09-08T05:25:44;4.85;;;4.55;;
23140;SDS011;11739;54.750;9.124;2023-09-08T05:28:09;4.78;;;4.38;;
23140;SDS011;11739;54.750;9.124;2023-09-08T05:30:35;4.90;;;4.50;;
23140;SDS011;11739;54.750;9.124;2023-09-08T05:33:00;4.95;;;4.55;;
23140;SDS011;11739;54.750;9.124;2023-09-08T05:35:25;5.05;;;4.65;;
23140;SDS011;11739;54.750;9.124;2023-09-08T05:37:51;5.22;;;4.82;;
23140;SDS011;11739;54.750;9.124;2023-09-08T05:40:16;5.60;;;4.65;;
23140;SDS011;11739;54.750;9.124;2023-09-08T05:42:41;5.30;;;4.90;;
23140;SDS011;11739;54.750;9.124;2023-09-08T05:45:07;4.90;;;4.50;;
23140;SDS011;11739;54.750;9.124;2023-09-08T05:47:32;5.57;;;5.07;;
23140;SDS011;11739;54.750;9.124;2023-09-08T05:49:57;4.80;;;4.40;;
23140;SDS011;11739;54.750;9.124;2023-09-08T05:52:22;5.40;;;4.47;;
23140;SDS011;11739;54.750;9.124;2023-09-08T05:54:48;5.30;;;4.80;;
23140;SDS011;11739;54.750;9.124;2023-09-08T05:57:13;5.57;;;5.10;;
23140;SDS011;11739;54.750;9.124;2023-09-08T05:59:38;4.85;;;4.45;;
23140;SDS011;11739;54.750;9.124;2023-09-08T06:02:04;5.18;;;4.68;;
23140;SDS011;11739;54.750;9.124;2023-09-08T06:04:29;5.15;;;4.70;;
23140;SDS011;11739;54.750;9.124;2023-09-08T06:06:54;5.65;;;5.07;;
23140;SDS011;11739;54.750;9.124;2023-09-08T06:09:20;5.53;;;5.03;;
23140;SDS011;11739;54.750;9.124;2023-09-08T06:11:45;6.07;;;5.47;;
23140;SDS011;11739;54.750;9.124;2023-09-08T06:14:10;5.50;;;5.00;;
23140;SDS011;11739;54.750;9.124;2023-09-08T06:16:36;6.32;;;4.80;;
23140;SDS011;11739;54.750;9.124;2023-09-08T06:19:01;5.45;;;4.95;;
23140;SDS011;11739;54.750;9.124;2023-09-08T06:21:26;5.57;;;5.07;;
23140;SDS011;11739;54.750;9.124;2023-09-08T06:23:51;5.35;;;4.95;;
23140;SDS011;11739;54.750;9.124;2023-09-08T06:26:17;5.50;;;5.00;;
23140;SDS011;11739;54.750;9.124;2023-09-08T06:28:42;5.40;;;4.95;;
23140;SDS011;11739;54.750;9.124;2023-09-08T06:31:07;5.72;;;5.20;;
23140;SDS011;11739;54.750;9.124;2023-09-08T06:33:33;5.40;;;4.90;;
23140;SDS011;11739;54.750;9.124;2023-09-08T06:35:58;5.50;;;5.00;;
23140;SDS011;11739;54.750;9.124;2023-09-08T06:38:23;5.30;;;4.78;;
23140;SDS011;11739;54.750;9.124;2023-09-08T06:40:49;7.10;;;5.25;;
23140;SDS011;11739;54.750;9.124;2023-09-08T06:43:14;5.53;;;5.03;;
23140;SDS011;11739;54.750;9.124;2023-09-08T06:45:39;6.25;;;5.63;;
23140;SDS011;11739;54.750;9.124;2023-09-08T06:48:05;6.43;;;5.60;;
23140;SDS011;11739;54.750;9.124;2023-09-08T06:50:30;6.70;;;5.28;;
23140;SDS011;11739;54.750;9.124;2023-09-08T06:52:55;5.50;;;5.00;;
23140;SDS011;11739;54.750;9.124;2023-09-08T06:55:21;6.07;;;5.25;;
23140;SDS011;11739;54.750;9.124;2023-09-08T06:57:46;6.00;;;5.38;;
23140;SDS011;11739;54.750;9.124;2023-09-08T07:00:12;5.80;;;5.20;;
23140;SDS011;11739;54.750;9.124;2023-09-08T07:02:38;5.63;;;5.18;;
23140;SDS011;11739;54.750;9.124;2023-09-08T07:05:04;6.20;;;5.60;;
23140;SDS011;11739;54.750;9.124;2023-09-08T07:07:29;5.93;;;5.15;;
23140;SDS011;11739;54.750;9.124;2023-09-08T07:09:54;5.63;;;5.13;;
23140;SDS011;11739;54.750;9.124;2023-09-08T07:12:20;5.70;;;5.10;;
23140;SDS011;11739;54.750;9.124;2023-09-08T07:14:45;5.55;;;5.03;;
23140;SDS011;11739;54.750;9.124;2023-09-08T07:17:10;6.15;;;5.38;;
23140;SDS011;11739;54.750;9.124;2023-09-08T07:19:36;5.55;;;5.13;;
23140;SDS011;11739;54.750;9.124;2023-09-08T07:22:01;5.63;;;5.22;;
23140;SDS011;11739;54.750;9.124;2023-09-08T07:24:26;5.63;;;5.13;;
23140;SDS011;11739;54.750;9.124;2023-09-08T07:26:51;6.03;;;5.53;;
23140;SDS011;11739;54.750;9.124;2023-09-08T07:29:17;5.50;;;4.88;;
23140;SDS011;11739;54.750;9.124;2023-09-08T07:31:42;6.10;;;5.10;;
23140;SDS011;11739;54.750;9.124;2023-09-08T07:34:07;5.75;;;5.25;;
23140;SDS011;11739;54.750;9.124;2023-09-08T07:36:33;5.47;;;5.07;;
23140;SDS011;11739;54.750;9.124;2023-09-08T07:39:00;6.10;;;5.60;;
23140;SDS011;11739;54.750;9.124;2023-09-08T07:41:25;5.88;;;5.38;;
23140;SDS011;11739;54.750;9.124;2023-09-08T07:43:50;5.90;;;5.30;;
23140;SDS011;11739;54.750;9.124;2023-09-08T07:46:16;6.32;;;5.10;;
23140;SDS011;11739;54.750;9.124;2023-09-08T07:48:41;6.03;;;5.53;;
23140;SDS011;11739;54.750;9.124;2023-09-08T07:51:06;5.35;;;4.95;;
23140;SDS011;11739;54.750;9.124;2023-09-08T07:53:32;6.15;;;5.65;;
23140;SDS011;11739;54.750;9.124;2023-09-08T07:55:57;5.38;;;4.97;;
23140;SDS011;11739;54.750;9.124;2023-09-08T07:58:22;5.97;;;5.47;;
23140;SDS011;11739;54.750;9.124;2023-09-08T08:00:47;5.43;;;5.03;;
23140;SDS011;11739;54.750;9.124;2023-09-08T08:03:13;6.25;;;5.65;;
23140;SDS011;11739;54.750;9.124;2023-09-08T08:05:38;6.05;;;5.55;;
23140;SDS011;11739;54.750;9.124;2023-09-08T08:08:03;5.90;;;5.40;;
23140;SDS011;11739;54.750;9.124;2023-09-08T08:10:29;6.18;;;5.57;;
23140;SDS011;11739;54.750;9.124;2023-09-08T08:12:54;6.13;;;5.60;;
23140;SDS011;11739;54.750;9.124;2023-09-08T08:15:19;5.68;;;5.18;;
23140;SDS011;11739;54.750;9.124;2023-09-08T08:17:45;5.93;;;5.40;;
23140;SDS011;11739;54.750;9.124;2023-09-08T08:20:11;5.72;;;5.22;;
23140;SDS011;11739;54.750;9.124;2023-09-08T08:22:36;6.00;;;5.25;;
23140;SDS011;11739;54.750;9.124;2023-09-08T08:25:02;5.53;;;5.03;;
23140;SDS011;11739;54.750;9.124;2023-09-08T08:27:27;5.95;;;5.43;;
23140;SDS011;11739;54.750;9.124;2023-09-08T08:29:53;5.43;;;4.95;;
23140;SDS011;11739;54.750;9.124;2023-09-08T08:32:18;5.60;;;5.07;;
23140;SDS011;11739;54.750;9.124;2023-09-08T08:34:43;6.28;;;5.32;;
23140;SDS011;11739;54.750;9.124;2023-09-08T08:37:08;6.22;;;5.63;;
23140;SDS011;11739;54.750;9.124;2023-09-08T08:39:34;5.63;;;5.13;;
23140;SDS011;11739;54.750;9.124;2023-09-08T08:42:06;5.57;;;5.07;;
23140;SDS011;11739;54.750;9.124;2023-09-08T08:44:31;5.40;;;4.97;;
23140;SDS011;11739;54.750;9.124;2023-09-08T08:46:57;8.13;;;5.25;;
23140;SDS011;11739;54.750;9.124;2023-09-08T08:49:23;6.05;;;4.90;;
23140;SDS011;11739;54.750;9.124;2023-09-08T08:51:48;5.25;;;4.85;;
23140;SDS011;11739;54.750;9.124;2023-09-08T08:54:15;6.13;;;4.90;;
23140;SDS011;11739;54.750;9.124;2023-09-08T08:56:40;5.40;;;4.97;;
23140;SDS011;11739;54.750;9.124;2023-09-08T08:59:06;5.30;;;4.85;;
23140;SDS011;11739;54.750;9.124;2023-09-08T09:01:31;5.90;;;5.30;;
23140;SDS011;11739;54.750;9.124;2023-09-08T09:03:57;5.50;;;5.00;;
23140;SDS011;11739;54.750;9.124;2023-09-08T09:06:22;5.60;;;5.10;;
23140;SDS011;11739;54.750;9.124;2023-09-08T09:08:48;6.30;;;5.10;;
23140;SDS011;11739;54.750;9.124;2023-09-08T09:11:13;6.00;;;5.47;;
23140;SDS011;11739;54.750;9.124;2023-09-08T09:13:39;7.47;;;5.10;;
23140;SDS011;11739;54.750;9.124;2023-09-08T09:16:05;6.35;;;5.13;;
23140;SDS011;11739;54.750;9.124;2023-09-08T09:18:30;5.38;;;4.93;;
23140;SDS011;11739;54.750;9.124;2023-09-08T09:20:57;6.35;;;5.00;;
23140;SDS011;11739;54.750;9.124;2023-09-08T09:23:28;5.30;;;4.80;;
23140;SDS011;11739;54.750;9.124;2023-09-08T09:25:53;6.07;;;4.93;;
23140;SDS011;11739;54.750;9.124;2023-09-08T09:28:19;6.45;;;4.90;;
23140;SDS011;11739;54.750;9.124;2023-09-08T09:30:48;5.65;;;5.15;;
23140;SDS011;11739;54.750;9.124;2023-09-08T09:33:15;4.97;;;4.57;;
23140;SDS011;11739;54.750;9.124;2023-09-08T09:35:44;5.05;;;4.63;;
23140;SDS011;11739;54.750;9.124;2023-09-08T09:38:10;5.45;;;4.88;;
23140;SDS011;11739;54.750;9.124;2023-09-08T09:40:36;5.35;;;4.88;;
23140;SDS011;11739;54.750;9.124;2023-09-08T09:43:02;5.63;;;5.07;;
23140;SDS011;11739;54.750;9.124;2023-09-08T09:45:29;6.05;;;5.10;;
23140;SDS011;11739;54.750;9.124;2023-09-08T09:47:54;5.03;;;4.63;;
23140;SDS011;11739;54.750;9.124;2023-09-08T09:50:27;5.15;;;4.75;;
23140;SDS011;11739;54.750;9.124;2023-09-08T09:53:00;5.63;;;4.70;;
23140;SDS011;11739;54.750;9.124;2023-09-08T09:55:26;4.88;;;4.47;;
23140;SDS011;11739;54.750;9.124;2023-09-08T09:57:56;5.60;;;4.97;;
23140;SDS011;11739;54.750;9.124;2023-09-08T10:00:22;6.22;;;4.95;;
23140;SDS011;11739;54.750;9.124;2023-09-08T10:02:48;5.25;;;4.80;;
23140;SDS011;11739;54.750;9.124;2023-09-08T10:05:13;5.15;;;4.75;;
23140;SDS011;11739;54.750;9.124;2023-09-08T10:07:39;5.82;;;4.40;;
23140;SDS011;11739;54.750;9.124;2023-09-08T10:10:05;5.13;;;4.72;;
23140;SDS011;11739;54.750;9.124;2023-09-08T10:12:30;5.38;;;4.88;;
23140;SDS011;11739;54.750;9.124;2023-09-08T10:14:57;5.07;;;4.60;;
23140;SDS011;11739;54.750;9.124;2023-09-08T10:17:23;4.93;;;4.53;;
23140;SDS011;11739;54.750;9.124;2023-09-08T10:19:50;4.72;;;4.35;;
23140;SDS011;11739;54.750;9.124;2023-09-08T10:22:16;5.13;;;4.65;;
23140;SDS011;11739;54.750;9.124;2023-09-08T10:24:46;4.88;;;4.47;;
23140;SDS011;11739;54.750;9.124;2023-09-08T10:27:12;4.88;;;4.47;;
23140;SDS011;11739;54.750;9.124;2023-09-08T10:29:39;5.50;;;4.20;;
23140;SDS011;11739;54.750;9.124;2023-09-08T10:32:05;5.40;;;4.93;;
23140;SDS011;11739;54.750;9.124;2023-09-08T10:34:32;5.15;;;4.63;;
23140;SDS011;11739;54.750;9.124;2023-09-08T10:36:58;5.47;;;4.97;;
23140;SDS011;11739;54.750;9.124;2023-09-08T10:44:43;6.22;;;4.80;;
23140;SDS011;11739;54.750;9.124;2023-09-08T10:47:09;4.95;;;4.30;;
23140;SDS011;11739;54.750;9.124;2023-09-08T10:49:35;4.80;;;4.30;;
23140;SDS011;11739;54.750;9.124;2023-09-08T10:52:10;4.43;;;4.03;;
23140;SDS011;11739;54.750;9.124;2023-09-08T10:54:42;5.47;;;4.30;;
23140;SDS011;11739;54.750;9.124;2023-09-08T10:57:15;4.65;;;4.35;;
23140;SDS011;11739;54.750;9.124;2023-09-08T10:59:57;4.75;;;4.32;;
23140;SDS011;11739;54.750;9.124;2023-09-08T11:02:39;4.78;;;4.32;;
23140;SDS011;11739;54.750;9.124;2023-09-08T11:05:11;4.68;;;4.28;;
23140;SDS011;11739;54.750;9.124;2023-09-08T11:07:38;4.82;;;4.43;;
23140;SDS011;11739;54.750;9.124;2023-09-08T11:10:04;4.43;;;4.13;;
23140;SDS011;11739;54.750;9.124;2023-09-08T11:12:30;5.03;;;4.57;;
23140;SDS011;11739;54.750;9.124;2023-09-08T11:14:56;4.97;;;4.40;;
23140;SDS011;11739;54.750;9.124;2023-09-08T11:17:25;5.53;;;4.28;;
23140;SDS011;11739;54.750;9.124;2023-09-08T11:19:51;5.85;;;4.53;;
23140;SDS011;11739;54.750;9.124;2023-09-08T11:22:17;4.50;;;4.10;;
23140;SDS011;11739;54.750;9.124;2023-09-08T11:24:43;5.80;;;5.20;;
23140;SDS011;11739;54.750;9.124;2023-09-08T11:27:09;4.30;;;3.90;;
23140;SDS011;11739;54.750;9.124;2023-09-08T11:29:36;6.10;;;4.38;;
23140;SDS011;11739;54.750;9.124;2023-09-08T11:32:01;5.03;;;4.35;;
23140;SDS011;11739;54.750;9.124;2023-09-08T11:34:27;4.32;;;3.92;;
23140;SDS011;11739;54.750;9.124;2023-09-08T11:36:53;5.70;;;4.75;;
23140;SDS011;11739;54.750;9.124;2023-09-08T11:39:18;4.20;;;3.83;;
23140;SDS011;11739;54.750;9.124;2023-09-08T11:41:44;4.70;;;4.30;;
23140;SDS011;11739;54.750;9.124;2023-09-08T11:44:09;5.03;;;4.63;;
23140;SDS011;11739;54.750;9.124;2023-09-08T11:46:40;4.28;;;3.97;;
23140;SDS011;11739;54.750;9.124;2023-09-08T11:49:05;4.20;;;3.80;;
23140;SDS011;11739;54.750;9.124;2023-09-08T11:51:31;6.35;;;4.45;;
23140;SDS011;11739;54.750;9.124;2023-09-08T11:53:56;4.68;;;4.25;;
23140;SDS011;11739;54.750;9.124;2023-09-08T11:56:21;4.40;;;4.00;;
23140;SDS011;11739;54.750;9.124;2023-09-08T11:58:47;4.63;;;4.22;;
23140;SDS011;11739;54.750;9.124;2023-09-08T12:01:12;4.60;;;4.20;;
23140;SDS011;11739;54.750;9.124;2023-09-08T12:03:53;4.10;;;3.80;;
23140;SDS011;11739;54.750;9.124;2023-09-08T12:06:27;5.07;;;4.45;;
23140;SDS011;11739;54.750;9.124;2023-09-08T12:08:53;4.63;;;4.22;;
23140;SDS011;11739;54.750;9.124;2023-09-08T12:11:20;4.63;;;3.72;;
23140;SDS011;11739;54.750;9.124;2023-09-08T12:13:45;4.30;;;4.00;;
23140;SDS011;11739;54.750;9.124;2023-09-08T12:16:20;4.78;;;4.35;;
23140;SDS011;11739;54.750;9.124;2023-09-08T12:18:46;4.30;;;3.90;;
23140;SDS011;11739;54.750;9.124;2023-09-08T12:21:11;5.10;;;4.60;;
23140;SDS011;11739;54.750;9.124;2023-09-08T12:23:49;4.43;;;4.03;;
23140;SDS011;11739;54.750;9.124;2023-09-08T12:26:15;4.43;;;4.03;;
23140;SDS011;11739;54.750;9.124;2023-09-08T12:28:40;4.50;;;4.10;;
23140;SDS011;11739;54.750;9.124;2023-09-08T12:31:05;4.13;;;3.83;;
23140;SDS011;11739;54.750;9.124;2023-09-08T12:33:31;4.45;;;3.75;;
23140;SDS011;11739;54.750;9.124;2023-09-08T12:35:56;4.25;;;3.92;;
23140;SDS011;11739;54.750;9.124;2023-09-08T12:38:21;4.22;;;3.83;;
23140;SDS011;11739;54.750;9.124;2023-09-08T12:40:47;4.40;;;4.00;;
23140;SDS011;11739;54.750;9.124;2023-09-08T12:43:12;4.78;;;4.00;;
23140;SDS011;11739;54.750;9.124;2023-09-08T12:45:38;4.95;;;4.05;;
23140;SDS011;11739;54.750;9.124;2023-09-08T12:48:03;4.43;;;4.03;;
23140;SDS011;11739;54.750;9.124;2023-09-08T12:50:29;4.13;;;3.83;;
23140;SDS011;11739;54.750;9.124;2023-09-08T12:52:54;4.70;;;4.03;;
23140;SDS011;11739;54.750;9.124;2023-09-08T12:55:20;5.20;;;4.03;;
23140;SDS011;11739;54.750;9.124;2023-09-08T12:57:45;4.25;;;3.55;;
23140;SDS011;11739;54.750;9.124;2023-09-08T13:00:10;4.97;;;3.83;;
23140;SDS011;11739;54.750;9.124;2023-09-08T13:02:36;6.45;;;3.63;;
23140;SDS011;11739;54.750;9.124;2023-09-08T13:05:02;4.35;;;3.95;;
23140;SDS011;11739;54.750;9.124;2023-09-08T13:07:27;4.70;;;3.60;;
23140;SDS011;11739;54.750;9.124;2023-09-08T13:09:53;5.40;;;3.70;;
23140;SDS011;11739;54.750;9.124;2023-09-08T13:12:18;3.83;;;3.53;;
23140;SDS011;11739;54.750;9.124;2023-09-08T13:14:44;3.88;;;3.38;;
23140;SDS011;11739;54.750;9.124;2023-09-08T13:17:10;4.32;;;3.75;;
23140;SDS011;11739;54.750;9.124;2023-09-08T13:19:35;4.10;;;3.70;;
23140;SDS011;11739;54.750;9.124;2023-09-08T13:22:00;4.18;;;3.42;;
23140;SDS011;11739;54.750;9.124;2023-09-08T13:24:26;4.03;;;3.63;;
23140;SDS011;11739;54.750;9.124;2023-09-08T13:26:51;5.03;;;3.50;;
23140;SDS011;11739;54.750;9.124;2023-09-08T13:29:16;3.88;;;3.55;;
23140;SDS011;11739;54.750;9.124;2023-09-08T13:31:42;3.75;;;3.45;;
23140;SDS011;11739;54.750;9.124;2023-09-08T13:34:07;3.60;;;3.30;;
23140;SDS011;11739;54.750;9.124;2023-09-08T13:36:32;4.57;;;3.58;;
23140;SDS011;11739;54.750;9.124;2023-09-08T13:38:58;4.15;;;3.80;;
23140;SDS011;11739;54.750;9.124;2023-09-08T13:41:23;3.85;;;3.47;;
23140;SDS011;11739;54.750;9.124;2023-09-08T13:43:49;3.95;;;3.42;;
23140;SDS011;11739;54.750;9.124;2023-09-08T13:46:14;4.03;;;3.47;;
23140;SDS011;11739;54.750;9.124;2023-09-08T13:48:39;3.70;;;3.28;;
23140;SDS011;11739;54.750;9.124;2023-09-08T13:51:05;3.75;;;3.45;;
23140;SDS011;11739;54.750;9.124;2023-09-08T13:53:30;4.20;;;3.80;;
23140;SDS011;11739;54.750;9.124;2023-09-08T13:55:55;4.20;;;3.80;;
23140;SDS011;11739;54.750;9.124;2023-09-08T13:58:21;4.20;;;3.80;;
23140;SDS011;11739;54.750;9.124;2023-09-08T14:00:46;4.47;;;3.30;;
23140;SDS011;11739;54.750;9.124;2023-09-08T14:03:12;4.10;;;3.47;;
23140;SDS011;11739;54.750;9.124;2023-09-08T14:05:37;3.97;;;3.50;;
23140;SDS011;11739;54.750;9.124;2023-09-08T14:08:02;3.78;;;3.47;;
23140;SDS011;11739;54.750;9.124;2023-09-08T14:10:28;4.72;;;3.92;;
23140;SDS011;11739;54.750;9.124;2023-09-08T14:12:53;3.72;;;3.42;;
23140;SDS011;11739;54.750;9.124;2023-09-08T14:15:18;3.83;;;3.53;;
23140;SDS011;11739;54.750;9.124;2023-09-08T14:17:44;5.28;;;3.60;;
23140;SDS011;11739;54.750;9.124;2023-09-08T14:20:09;5.68;;;3.60;;
23140;SDS011;11739;54.750;9.124;2023-09-08T14:22:35;5.32;;;4.20;;
23140;SDS011;11739;54.750;9.124;2023-09-08T14:25:00;4.97;;;4.10;;
23140;SDS011;11739;54.750;9.124;2023-09-08T14:27:26;4.40;;;4.10;;
23140;SDS011;11739;54.750;9.124;2023-09-08T14:29:51;4.05;;;3.72;;
23140;SDS011;11739;54.750;9.124;2023-09-08T14:32:16;4.38;;;3.97;;
23140;SDS011;11739;54.750;9.124;2023-09-08T14:34:42;4.22;;;3.90;;
23140;SDS011;11739;54.750;9.124;2023-09-08T14:37:07;4.30;;;3.90;;
23140;SDS011;11739;54.750;9.124;2023-09-08T14:39:32;4.90;;;3.90;;
23140;SDS011;11739;54.750;9.124;2023-09-08T14:41:58;4.10;;;3.80;;
23140;SDS011;11739;54.750;9.124;2023-09-08T14:44:23;4.82;;;4.00;;
23140;SDS011;11739;54.750;9.124;2023-09-08T14:46:48;4.97;;;4.40;;